Valparaiso, Indiana
Current Conditions -  °F | °C
As of 1:56 AM on Tuesday 21 Oct 2014 (Local Time) from KVPZ Reporting Station
Overcast Overcast  
Wind Chill: 51°   Ceiling: 5000
Heat Index: 51°   Visibility: 10mi
Dew Point: 44°   Wind: 6mph
Humidity: 77%   Direction: 350°N
Pressure: 29.99"   Gusts: NA
Location:  41.47°N, 87.06°W
Report Text: KVPZ 210656Z AUTO 35005KT 10SM OVC050 11/07 A2999 RMK AO2 RAE04 SLP156 P0000 T01060067 TSNO
Loading
Personal Weather Stations






























Interactive Weather Map
Tropical Storm Tracking
New forecast layout! Learn more

10-Day Weather Forecast

Advertisements
Track Severe Weather on mobile